.
WxDataArchive / Data Records for 2011-09-18
2011-09-17 September 2011 2011-09-19

Data Records for Sunday, 18 September 2011

Time	Temp	Chill	HIndex	Humid	Dewpt	 Wind 	HiWind	WindDir	Rain 	Barom 
-----	----	-----	------	-----	-----	------	------	-------	-----	----- 
00:00	51.1	51.1	51.1	80	45.1	0	0	---	0.00	30.280 
00:05	51.1	51.1	51.1	80	45.1	0	1	90	0.00	30.280 
00:10	51.1	51.1	51.1	80	45.1	0	0	---	0.00	30.280 
00:15	51.0	51.0	51.0	81	45.4	0	0	---	0.00	30.275 
00:20	51.0	51.0	51.0	81	45.4	0	0	---	0.00	30.275 
00:25	50.8	50.8	50.8	81	45.2	0	0	---	0.00	30.275 
00:30	50.8	50.8	50.8	82	45.5	0	1	90	0.00	30.270 
00:35	50.8	50.8	50.8	82	45.5	0	0	---	0.00	30.270 
00:40	50.7	50.7	50.7	82	45.4	0	1	90	0.00	30.270 
00:45	50.7	50.7	50.7	82	45.4	0	1	90	0.00	30.269 
00:50	50.5	50.5	50.5	82	45.2	0	0	---	0.00	30.269 
00:55	50.4	50.4	50.4	83	45.4	0	0	---	0.00	30.269 
01:00	50.4	50.4	50.4	83	45.4	0	1	90	0.00	30.265 
01:05	50.2	50.2	50.2	83	45.2	0	1	90	0.00	30.265 
01:10	50.1	50.1	50.1	84	45.5	0	1	90	0.00	30.265 
01:15	50.1	50.1	50.1	84	45.5	0	1	90	0.00	30.265 
01:20	49.9	49.9	49.9	84	45.3	0	1	90	0.00	30.265 
01:25	49.8	49.8	49.8	84	45.2	0	1	90	0.00	30.265 
01:30	49.8	49.8	49.8	84	45.2	0	1	90	0.00	30.263 
01:35	49.6	49.6	49.6	84	45.0	0	1	90	0.00	30.263 
01:40	49.6	49.6	49.6	85	45.3	0	1	90	0.00	30.263 
01:45	49.5	49.5	49.5	85	45.2	0	1	90	0.00	30.264 
01:50	49.4	49.4	49.4	85	45.1	0	0	---	0.00	30.264 
01:55	49.2	49.2	49.2	85	44.9	0	0	---	0.00	30.264 
02:00	49.2	49.2	49.2	86	45.2	0	0	---	0.00	30.265 
02:05	49.1	49.1	49.1	86	45.1	0	0	---	0.00	30.265 
02:10	48.9	48.9	48.9	86	44.9	0	0	---	0.00	30.265 
02:15	48.8	48.8	48.8	86	44.8	0	0	---	0.00	30.262 
02:20	48.8	48.8	48.8	87	45.1	0	0	---	0.00	30.262 
02:25	48.6	48.6	48.6	87	44.9	0	1	90	0.00	30.262 
02:30	48.6	48.6	48.6	88	45.2	0	0	---	0.00	30.259 
02:35	48.6	48.6	48.6	87	44.9	0	0	---	0.00	30.259 
02:40	48.5	48.5	48.5	88	45.1	0	0	---	0.00	30.259 
02:45	48.3	48.3	48.3	88	44.9	0	0	---	0.00	30.261 
02:50	48.3	48.3	48.3	88	44.9	0	0	---	0.00	30.261 
02:55	48.2	48.2	48.2	88	44.8	0	0	---	0.00	30.261 
03:00	48.2	48.2	48.2	89	45.1	0	0	---	0.00	30.259 
03:05	48.0	48.0	48.0	89	44.9	0	1	90	0.00	30.259 
03:10	48.2	48.2	48.2	89	45.1	0	1	90	0.00	30.259 
03:15	48.2	48.2	48.2	89	45.1	0	1	90	0.00	30.258 
03:20	48.2	48.2	48.2	89	45.1	0	1	90	0.00	30.258 
03:25	48.2	48.2	48.2	90	45.4	0	1	90	0.00	30.258 
03:30	48.2	48.2	48.2	89	45.1	0	1	90	0.00	30.261 
03:35	48.2	48.2	48.2	90	45.4	0	1	90	0.00	30.261 
03:40	48.0	48.0	48.0	90	45.2	0	1	90	0.00	30.261 
03:45	48.0	48.0	48.0	90	45.2	0	2	90	0.00	30.252 
03:50	48.0	48.0	48.0	90	45.2	0	2	90	0.00	30.252 
03:55	48.2	48.2	48.2	90	45.4	0	1	90	0.00	30.252 
04:00	48.2	48.2	48.2	90	45.4	0	3	90	0.00	30.250 
04:05	48.2	48.2	48.2	90	45.4	0	3	90	0.00	30.250 
04:10	48.2	48.2	48.2	90	45.4	0	2	90	0.00	30.250 
04:15	48.2	48.2	48.2	90	45.4	0	2	90	0.00	30.251 
04:20	48.0	48.0	48.0	90	45.2	0	0	---	0.00	30.251 
04:25	48.0	48.0	48.0	90	45.2	0	1	90	0.00	30.251 
04:30	48.0	48.0	48.0	91	45.5	0	3	90	0.00	30.251 
04:35	48.0	48.0	48.0	91	45.5	0	1	90	0.00	30.251 
04:40	47.9	47.9	47.9	91	45.4	0	0	---	0.00	30.251 
04:45	47.7	47.7	47.7	90	44.9	0	0	---	0.00	30.258 
04:50	47.7	47.7	47.7	91	45.2	0	0	---	0.00	30.258 
04:55	47.6	47.6	47.6	91	45.1	0	1	90	0.00	30.258 
05:00	47.4	47.4	47.4	91	44.9	0	0	---	0.00	30.256 
05:05	47.3	47.3	47.3	91	44.8	0	0	---	0.00	30.256 
05:10	47.3	47.3	47.3	91	44.8	0	0	---	0.00	30.256 
05:15	47.1	47.1	47.1	91	44.6	0	0	---	0.00	30.259 
05:20	46.8	46.8	46.8	91	44.3	0	0	---	0.00	30.259 
05:25	46.7	46.7	46.7	91	44.2	0	0	---	0.00	30.259 
05:30	46.5	46.5	46.5	91	44.0	0	0	---	0.00	30.264 
05:35	46.5	46.5	46.5	91	44.0	0	0	---	0.00	30.264 
05:40	46.4	46.4	46.4	92	44.2	0	0	---	0.00	30.264 
05:45	46.4	46.4	46.4	92	44.2	0	0	---	0.00	30.264 
05:50	46.4	46.4	46.4	92	44.2	0	0	---	0.00	30.264 
05:55	46.4	46.4	46.4	92	44.2	0	0	---	0.00	30.264 
06:00	46.5	46.5	46.5	92	44.3	0	1	90	0.00	30.257 
06:05	46.8	46.8	46.8	93	44.9	0	1	90	0.00	30.257 
06:10	47.0	47.0	47.0	93	45.1	0	1	90	0.00	30.257 
06:15	47.0	47.0	47.0	93	45.1	0	0	---	0.00	30.264 
06:20	47.0	47.0	47.0	93	45.1	0	1	90	0.00	30.264 
06:25	46.8	46.8	46.8	93	44.9	0	0	---	0.00	30.264 
06:30	46.7	46.7	46.7	93	44.8	0	1	90	0.00	30.267 
06:35	46.7	46.7	46.7	93	44.8	0	0	---	0.00	30.267 
06:40	46.5	46.5	46.5	93	44.6	0	1	90	0.00	30.267 
06:45	46.5	46.5	46.5	93	44.6	0	2	90	0.00	30.265 
06:50	46.5	46.5	46.5	93	44.6	0	2	90	0.00	30.265 
06:55	46.5	46.5	46.5	93	44.6	0	1	90	0.00	30.265 
07:00	46.4	46.4	46.4	93	44.5	0	0	---	0.00	30.267 
07:05	46.4	46.4	46.4	93	44.5	0	0	---	0.00	30.267 
07:10	46.2	46.2	46.2	93	44.3	0	0	---	0.00	30.267 
07:15	46.2	46.2	46.2	93	44.3	0	0	---	0.00	30.272 
07:20	46.1	46.1	46.1	93	44.2	0	0	---	0.00	30.272 
07:25	46.1	46.1	46.1	93	44.2	0	0	---	0.00	30.272 
07:30	46.0	46.0	46.0	93	44.1	0	0	---	0.00	30.281 
07:35	46.0	46.0	46.0	93	44.1	0	0	---	0.00	30.281 
07:40	45.8	45.8	45.8	93	43.9	0	0	---	0.00	30.281 
07:45	45.8	45.8	45.8	94	44.2	0	1	90	0.00	30.284 
07:50	46.0	46.0	46.0	94	44.4	0	0	---	0.00	30.284 
07:55	46.0	46.0	46.0	94	44.4	0	0	---	0.00	30.284 
08:00	46.1	46.1	46.1	94	44.5	0	1	90	0.00	30.283 
08:05	46.4	46.4	46.4	94	44.8	0	0	---	0.00	30.283 
08:10	46.7	46.7	46.7	94	45.1	0	0	---	0.00	30.283 
08:15	47.0	47.0	47.0	94	45.4	0	2	90	0.00	30.282 
08:20	47.3	47.3	47.3	94	45.7	1	3	90	0.00	30.282 
08:25	47.7	47.7	47.7	94	46.1	1	4	90	0.00	30.282 
08:30	48.2	48.2	48.2	94	46.6	1	4	112	0.00	30.278 
08:35	48.6	48.6	48.6	93	46.7	1	4	90	0.00	30.278 
08:40	49.1	49.1	49.1	92	46.9	1	4	90	0.00	30.278 
08:45	49.4	49.4	49.4	92	47.2	0	3	90	0.00	30.278 
08:50	49.6	49.6	49.6	92	47.4	0	0	---	0.00	30.278 
08:55	49.8	49.8	49.8	92	47.6	0	2	90	0.00	30.278 
09:00	50.1	50.1	50.1	91	47.6	1	3	90	0.00	30.275 
09:05	50.4	50.4	50.4	90	47.6	0	2	90	0.00	30.275 
09:10	50.5	50.5	50.5	90	47.7	1	4	90	0.00	30.275 
09:15	50.8	50.8	50.8	89	47.7	1	3	90	0.00	30.273 
09:20	51.1	51.1	51.1	89	48.0	1	3	90	0.00	30.273 
09:25	51.4	51.4	51.4	88	48.0	1	3	90	0.00	30.273 
09:30	51.7	51.7	51.7	88	48.3	0	2	90	0.00	30.278 
09:35	52.0	52.0	52.0	88	48.6	1	2	90	0.00	30.278 
09:40	52.5	52.5	52.5	87	48.7	0	2	90	0.00	30.278 
09:45	52.8	52.8	52.8	87	49.0	0	2	90	0.00	30.277 
09:50	53.3	53.3	53.3	86	49.2	1	3	90	0.00	30.277 
09:55	53.8	53.8	53.8	86	49.7	1	2	90	0.00	30.277 
10:00	54.4	54.4	54.4	85	50.0	1	4	90	0.00	30.274 
10:05	55.1	55.1	55.1	83	50.0	2	5	90	0.00	30.274 
10:10	56.2	56.2	56.2	81	50.4	1	3	90	0.00	30.274 
10:15	56.9	56.9	56.9	80	50.8	1	4	90	0.00	30.266 
10:20	57.6	57.6	57.6	78	50.8	2	6	90	0.00	30.266 
10:25	58.3	58.3	58.3	77	51.1	1	3	90	0.00	30.266 
10:30	59.2	59.2	59.2	75	51.3	1	4	90	0.00	30.268 
10:35	59.9	59.9	59.9	73	51.2	1	4	90	0.00	30.268 
10:40	60.5	60.5	60.5	73	51.8	1	4	90	0.00	30.268 
10:45	61.0	61.0	61.0	73	52.3	1	4	90	0.00	30.263 
10:50	61.5	61.5	61.5	72	52.4	1	4	90	0.00	30.263 
10:55	62.0	62.0	62.0	71	52.5	1	3	90	0.00	30.263 
11:00	62.4	62.4	62.4	70	52.5	2	4	90	0.00	30.260 
11:05	63.2	63.2	63.2	70	53.2	1	3	90	0.00	30.260 
11:10	63.9	63.9	63.9	69	53.5	1	3	90	0.00	30.260 
11:15	64.3	64.3	64.3	69	53.9	1	4	90	0.00	30.260 
11:20	64.8	64.8	64.8	68	54.0	2	4	90	0.00	30.260 
11:25	65.6	65.6	65.6	66	53.9	1	5	90	0.00	30.260 
11:30	66.1	66.1	66.1	65	54.0	1	3	68	0.00	30.257 
11:35	66.6	66.6	66.6	65	54.5	1	3	68	0.00	30.257 
11:40	66.6	66.6	66.6	65	54.5	1	4	68	0.00	30.257 
11:45	66.1	66.1	66.1	66	54.4	2	7	90	0.00	30.248 
11:50	66.4	66.4	66.4	66	54.7	2	4	90	0.00	30.248 
11:55	67.1	67.1	67.1	64	54.5	2	7	90	0.00	30.248 
12:00	67.1	67.1	67.1	64	54.5	2	5	90	0.00	30.242 
12:05	66.9	66.9	66.9	65	54.7	2	4	90	0.00	30.242 
12:10	67.4	67.4	67.4	65	55.2	1	3	90	0.00	30.242 
12:15	67.3	67.3	67.3	63	54.3	3	6	68	0.00	30.243 
12:20	67.1	67.1	67.1	66	55.4	1	5	68	0.00	30.243 
12:25	67.4	67.4	67.4	63	54.4	3	6	68	0.00	30.243 
12:30	67.9	67.9	67.9	62	54.4	1	3	315	0.00	30.240 
12:35	68.6	68.6	68.6	61	54.6	2	4	90	0.00	30.240 
12:40	68.4	68.4	68.4	62	54.9	3	6	90	0.00	30.240 
12:45	68.1	68.1	68.1	61	54.1	3	6	68	0.00	30.233 
12:50	68.1	68.1	68.1	62	54.6	2	4	112	0.00	30.233 
12:55	68.1	68.1	68.1	62	54.6	2	11	135	0.00	30.233 
13:00	68.3	68.3	68.3	61	54.3	2	4	68	0.00	30.225 
13:05	68.4	68.4	68.4	61	54.4	2	5	68	0.00	30.225 
13:10	68.6	68.6	68.6	60	54.1	2	7	90	0.00	30.225 
13:15	68.9	68.9	68.9	59	54.0	1	3	90	0.00	30.215 
13:20	69.4	69.4	69.4	57	53.5	1	3	90	0.00	30.215 
13:25	69.4	69.4	69.4	56	53.0	2	6	90	0.00	30.215 
13:30	69.4	69.4	69.4	57	53.5	2	4	90	0.00	30.208 
13:35	69.8	69.8	69.8	56	53.4	1	3	90	0.00	30.208 
13:40	70.4	70.4	70.4	55	53.4	2	4	90	0.00	30.208 
13:45	70.8	70.8	70.8	55	53.8	2	6	68	0.00	30.200 
13:50	70.8	70.8	70.8	52	52.3	2	5	112	0.00	30.200 
13:55	70.8	70.8	70.8	52	52.3	1	4	90	0.00	30.200 
14:00	70.9	70.9	70.9	51	51.9	1	5	270	0.00	30.202 
14:05	71.5	71.5	71.5	49	51.3	1	5	90	0.00	30.202 
14:10	72.0	72.0	72.0	50	52.3	2	9	90	0.00	30.202 
14:15	72.1	72.1	72.1	48	51.3	3	5	90	0.00	30.193 
14:20	72.3	72.3	72.3	49	52.1	2	6	90	0.00	30.193 
14:25	72.5	72.5	72.5	48	51.7	2	5	90	0.00	30.193 
14:30	72.5	72.5	72.5	49	52.2	2	6	112	0.00	30.186 
14:35	72.3	72.3	72.3	50	52.6	2	5	112	0.00	30.186 
14:40	72.0	72.0	72.0	50	52.3	2	5	68	0.00	30.186 
14:45	72.0	72.0	72.0	50	52.3	2	6	90	0.00	30.188 
14:50	72.0	72.0	72.0	51	52.9	1	3	90	0.00	30.188 
14:55	72.3	72.3	72.3	51	53.1	1	5	112	0.00	30.188 
15:00	72.7	72.7	72.7	52	54.0	1	5	90	0.00	30.176 
15:05	73.3	73.3	73.3	50	53.5	1	4	112	0.00	30.176 
15:10	74.0	74.0	74.0	48	53.0	2	5	90	0.00	30.176 
15:15	74.0	74.0	74.0	47	52.5	1	5	90	0.00	30.163 
15:20	73.7	73.7	73.7	46	51.6	2	6	90	0.00	30.163 
15:25	73.5	73.5	73.5	46	51.4	1	5	90	0.00	30.163 
15:30	73.0	73.0	73.0	45	50.4	2	5	112	0.00	30.164 
15:35	72.7	72.7	72.7	45	50.1	1	4	112	0.00	30.164 
15:40	72.7	72.7	72.7	46	50.7	1	4	112	0.00	30.164 
15:45	72.8	72.8	72.8	47	51.4	2	6	90	0.00	30.161 
15:50	72.7	72.7	72.7	48	51.9	2	4	90	0.00	30.161 
15:55	72.3	72.3	72.3	50	52.6	1	3	90	0.00	30.161 
16:00	72.3	72.3	72.3	51	53.1	0	3	112	0.00	30.157 
16:05	72.3	72.3	72.3	52	53.7	1	7	90	0.00	30.157 
16:10	72.3	72.3	72.3	53	54.2	1	3	90	0.00	30.157 
16:15	72.3	72.3	72.3	52	53.7	1	4	90	0.00	30.148 
16:20	72.3	72.3	72.3	51	53.1	2	5	112	0.00	30.148 
16:25	72.0	72.0	72.0	51	52.9	2	4	90	0.00	30.148 
16:30	71.8	71.8	71.8	52	53.2	0	1	90	0.00	30.146 
16:35	71.6	71.6	71.6	52	53.0	1	2	90	0.00	30.146 
16:40	71.6	71.6	71.6	53	53.5	1	3	0	0.00	30.146 
16:45	71.5	71.5	71.5	54	54.0	1	3	68	0.00	30.141 
16:50	71.5	71.5	71.5	55	54.5	1	4	112	0.00	30.141 
16:55	71.5	71.5	71.5	54	54.0	1	4	112	0.00	30.141 
17:00	71.3	71.3	71.3	55	54.3	1	3	112	0.00	30.135 
17:05	71.3	71.3	71.3	55	54.3	1	4	112	0.00	30.135 
17:10	71.3	71.3	71.3	55	54.3	1	3	90	0.00	30.135 
17:15	71.1	71.1	71.1	56	54.6	0	4	90	0.00	30.132 
17:20	71.1	71.1	71.1	57	55.1	1	6	90	0.00	30.132 
17:25	70.9	70.9	70.9	56	54.4	1	3	90	0.00	30.132 
17:30	70.8	70.8	70.8	57	54.8	1	4	45	0.00	30.131 
17:35	70.8	70.8	70.8	57	54.8	0	2	45	0.00	30.131 
17:40	70.6	70.6	70.6	58	55.1	1	3	45	0.00	30.131 
17:45	70.6	70.6	70.6	58	55.1	0	2	45	0.00	30.125 
17:50	70.8	70.8	70.8	58	55.3	1	3	45	0.00	30.125 
17:55	70.8	70.8	70.8	58	55.3	1	3	135	0.00	30.125 
18:00	70.8	70.8	70.8	59	55.7	1	3	135	0.00	30.116 
18:05	70.8	70.8	70.8	57	54.8	1	4	135	0.00	30.116 
18:10	70.9	70.9	70.9	58	55.4	1	3	112	0.00	30.116 
18:15	70.9	70.9	70.9	57	54.9	1	4	202	0.00	30.118 
18:20	71.1	71.1	71.1	57	55.1	0	3	68	0.00	30.118 
18:25	71.1	71.1	71.1	56	54.6	1	3	68	0.00	30.118 
18:30	71.1	71.1	71.1	57	55.1	1	4	112	0.00	30.118 
18:35	71.1	71.1	71.1	57	55.1	1	4	112	0.00	30.118 
18:40	70.9	70.9	70.9	58	55.4	0	3	135	0.00	30.118 
18:45	70.9	70.9	70.9	58	55.4	0	3	135	0.00	30.117 
18:50	70.8	70.8	70.8	59	55.7	0	1	90	0.00	30.117 
18:55	70.6	70.6	70.6	59	55.6	1	6	90	0.00	30.117 
19:00	70.4	70.4	70.4	60	55.8	1	4	90	0.00	30.116 
19:05	70.1	70.1	70.1	61	56.0	1	5	68	0.00	30.116 
19:10	69.9	69.9	69.9	61	55.8	0	2	112	0.00	30.116 
19:15	69.8	69.8	69.8	62	56.2	0	3	90	0.00	30.118 
19:20	69.6	69.6	69.6	62	56.0	0	2	112	0.00	30.118 
19:25	69.4	69.4	69.4	62	55.8	0	2	112	0.00	30.118 
19:30	69.3	69.3	69.3	63	56.2	0	2	112	0.00	30.118 
19:35	69.3	69.3	69.3	63	56.2	0	1	112	0.00	30.118 
19:40	69.1	69.1	69.1	64	56.4	0	2	135	0.00	30.118 
19:45	68.9	68.9	68.9	64	56.2	1	4	90	0.00	30.115 
19:50	68.8	68.8	68.8	64	56.1	1	3	90	0.00	30.115 
19:55	68.6	68.6	68.6	64	55.9	1	3	112	0.00	30.115 
20:00	68.6	68.6	68.6	65	56.4	0	4	112	0.00	30.102 
20:05	68.3	68.3	68.3	65	56.1	2	4	90	0.00	30.102 
20:10	68.1	68.1	68.1	65	55.9	1	4	90	0.00	30.102 
20:15	67.9	67.9	67.9	65	55.7	0	2	158	0.00	30.097 
20:20	67.8	67.8	67.8	66	56.0	0	2	158	0.00	30.097 
20:25	67.6	67.6	67.6	67	56.2	1	3	158	0.00	30.097 
20:30	67.4	67.4	67.4	67	56.1	0	2	112	0.00	30.091 
20:35	67.3	67.3	67.3	68	56.4	1	4	68	0.00	30.091 
20:40	67.3	67.3	67.3	68	56.4	0	2	68	0.00	30.091 
20:45	67.1	67.1	67.1	69	56.6	1	5	68	0.00	30.091 
20:50	67.1	67.1	67.1	69	56.6	0	3	112	0.00	30.091 
20:55	67.1	67.1	67.1	69	56.6	0	2	112	0.00	30.091 
21:00	66.9	66.9	66.9	70	56.8	0	2	112	0.00	30.099 
21:05	66.9	66.9	66.9	70	56.8	0	3	112	0.00	30.099 
21:10	66.8	66.8	66.8	71	57.1	0	1	112	0.00	30.099 
21:15	66.8	66.8	66.8	72	57.5	0	1	112	0.00	30.097 
21:20	66.6	66.6	66.6	72	57.3	0	2	112	0.00	30.097 
21:25	66.4	66.4	66.4	73	57.5	0	2	135	0.00	30.097 
21:30	66.4	66.4	66.4	73	57.5	0	2	135	0.00	30.099 
21:35	66.3	66.3	66.3	73	57.4	0	2	135	0.00	30.099 
21:40	66.3	66.3	66.3	74	57.8	0	2	135	0.00	30.099 
21:45	66.1	66.1	66.1	74	57.6	0	3	135	0.00	30.101 
21:50	66.1	66.1	66.1	74	57.6	0	3	90	0.00	30.101 
21:55	66.1	66.1	66.1	74	57.6	0	1	90	0.00	30.101 
22:00	66.1	66.1	66.1	74	57.6	0	3	90	0.00	30.099 
22:05	66.0	66.0	66.0	75	57.8	0	1	112	0.00	30.099 
22:10	66.0	66.0	66.0	75	57.8	0	3	112	0.00	30.099 
22:15	66.0	66.0	66.0	75	57.8	0	2	135	0.00	30.090 
22:20	66.0	66.0	66.0	75	57.8	0	1	0	0.00	30.090 
22:25	66.0	66.0	66.0	75	57.8	0	2	0	0.00	30.090 
22:30	66.0	66.0	66.0	74	57.5	1	4	135	0.00	30.085 
22:35	66.0	66.0	66.0	74	57.5	0	1	135	0.00	30.085 
22:40	66.0	66.0	66.0	74	57.5	0	4	90	0.00	30.085 
22:45	66.0	66.0	66.0	74	57.5	0	2	90	0.00	30.078 
22:50	66.0	66.0	66.0	75	57.8	0	3	90	0.00	30.078 
22:55	66.0	66.0	66.0	75	57.8	1	4	112	0.00	30.078 
23:00	66.0	66.0	66.0	75	57.8	0	2	158	0.00	30.074 
23:05	66.0	66.0	66.0	75	57.8	0	1	158	0.00	30.074 
23:10	66.0	66.0	66.0	75	57.8	0	2	158	0.00	30.074 
23:15	66.0	66.0	66.0	75	57.8	0	4	135	0.00	30.068 
23:20	66.0	66.0	66.0	75	57.8	0	3	112	0.00	30.068 
23:25	66.0	66.0	66.0	76	58.2	1	4	135	0.00	30.068 
23:30	66.0	66.0	66.0	76	58.2	0	3	112	0.00	30.060 
23:35	66.0	66.0	66.0	76	58.2	0	2	112	0.00	30.060 
23:40	65.8	65.8	65.8	77	58.4	0	3	135	0.00	30.060 
23:45	65.8	65.8	65.8	77	58.4	0	1	90	0.00	30.056 
23:50	65.8	65.8	65.8	77	58.4	0	2	90	0.00	30.056 
23:55	65.8	65.8	65.8	77	58.4	0	3	90	0.00	30.056 

CoCoRaHS
IN-AL-39
A2 Web Hosting
Creative Commons License
GoDaddy
search engine by freefind advanced

loaded 2018-11-16 00:48:53 • last modified 2010-11-18 10:43:29
Privacy PolicyDisclaimer
• wx.awcolley.com is powered by PmWiki v.2002016 •
• all content (unless otherwise noted) © 2018 A W Colley